createdAt,value
2023-02-25T00:01:20.580Z,11.00
2023-02-25T00:03:48.598Z,10.87
2023-02-25T00:06:16.629Z,12.13
2023-02-25T00:08:45.727Z,11.50
2023-02-25T00:11:15.463Z,11.30
2023-02-25T00:13:45.448Z,11.90
2023-02-25T00:16:14.956Z,12.10
2023-02-25T00:18:46.753Z,13.00
2023-02-25T00:21:17.190Z,12.60
2023-02-25T00:23:46.798Z,13.07
2023-02-25T00:26:15.089Z,12.60
2023-02-25T00:28:46.076Z,11.60
2023-02-25T00:31:17.529Z,12.07
2023-02-25T00:33:46.964Z,12.70
2023-02-25T00:36:20.229Z,12.40
2023-02-25T00:38:49.346Z,12.43
2023-02-25T00:41:19.234Z,14.60
2023-02-25T00:43:53.305Z,13.63
2023-02-25T00:46:22.331Z,13.27
2023-02-25T00:48:50.753Z,14.37
2023-02-25T00:51:21.285Z,13.03
2023-02-25T00:53:49.385Z,11.63
2023-02-25T00:56:20.108Z,10.60
2023-02-25T00:58:51.320Z,11.40
2023-02-25T01:01:22.814Z,9.40
2023-02-25T01:03:53.202Z,8.33
2023-02-25T01:06:22.022Z,8.00
2023-02-25T01:08:51.054Z,8.03
2023-02-25T01:11:21.878Z,8.63
2023-02-25T01:13:51.356Z,7.20
2023-02-25T01:16:21.533Z,7.87
2023-02-25T01:18:53.341Z,7.87
2023-02-25T01:21:25.822Z,7.40
2023-02-25T01:23:58.592Z,7.17
2023-02-25T01:26:27.482Z,7.33
2023-02-25T01:28:57.749Z,6.73
2023-02-25T01:31:29.328Z,7.70
2023-02-25T01:33:59.182Z,6.57
2023-02-25T01:36:28.018Z,7.07
2023-02-25T01:38:56.299Z,7.33
2023-02-25T01:41:24.627Z,6.30
2023-02-25T01:44:12.963Z,6.77
2023-02-25T01:46:42.587Z,5.30
2023-02-25T01:49:14.475Z,5.60
2023-02-25T01:51:43.256Z,5.50
2023-02-25T01:54:13.471Z,4.20
2023-02-25T01:56:43.367Z,3.60
2023-02-25T01:59:13.901Z,3.80
2023-02-25T02:01:42.229Z,3.10
2023-02-25T02:04:12.982Z,3.70
2023-02-25T02:06:43.355Z,3.10
2023-02-25T02:09:14.229Z,3.23
2023-02-25T02:11:42.478Z,2.93
2023-02-25T02:14:14.486Z,2.97
2023-02-25T02:17:18.482Z,2.90
2023-02-25T02:20:12.961Z,2.43
2023-02-25T02:23:21.958Z,2.73
2023-02-25T02:26:25.264Z,2.83
2023-02-25T02:29:34.942Z,2.30
2023-02-25T02:32:14.998Z,2.27
2023-02-25T02:34:52.843Z,2.70
2023-02-25T02:37:30.484Z,2.57
2023-02-25T02:40:10.366Z,3.03
2023-02-25T02:42:42.523Z,2.33
2023-02-25T02:45:14.570Z,2.10
2023-02-25T02:47:47.457Z,2.57
2023-02-25T02:50:19.585Z,2.30
2023-02-25T02:52:52.195Z,2.30
2023-02-25T02:55:23.382Z,2.50
2023-02-25T02:57:53.650Z,2.27
2023-02-25T03:00:25.702Z,2.20
2023-02-25T03:03:02.540Z,2.37
2023-02-25T03:05:35.347Z,2.70
2023-02-25T03:08:08.343Z,2.10
2023-02-25T03:10:36.414Z,2.27
2023-02-25T03:13:04.544Z,2.40
2023-02-25T03:15:34.157Z,2.00
2023-02-25T03:18:06.763Z,2.30
2023-02-25T03:20:39.245Z,2.20
2023-02-25T03:23:11.563Z,1.90
2023-02-25T03:25:47.582Z,2.60
2023-02-25T03:28:26.989Z,2.43
2023-02-25T03:31:03.013Z,2.20
2023-02-25T03:33:37.326Z,2.10
2023-02-25T03:36:10.647Z,2.10
2023-02-25T03:38:42.689Z,2.13
2023-02-25T03:41:11.701Z,2.20
2023-02-25T03:43:43.264Z,2.30
2023-02-25T03:46:12.235Z,3.17
2023-02-25T03:48:42.426Z,2.87
2023-02-25T03:51:10.773Z,3.13
2023-02-25T03:53:38.747Z,2.43
2023-02-25T03:56:09.674Z,2.77
2023-02-25T03:58:39.108Z,2.70
2023-02-25T04:01:11.950Z,2.50
2023-02-25T04:03:41.210Z,2.27
2023-02-25T04:06:10.259Z,1.80
2023-02-25T04:08:38.193Z,1.90
2023-02-25T04:11:06.679Z,1.87
2023-02-25T04:13:34.572Z,2.27
2023-02-25T04:16:02.774Z,2.07
2023-02-25T04:18:30.845Z,1.80
2023-02-25T04:21:00.106Z,1.93
2023-02-25T04:23:28.182Z,1.63
2023-02-25T04:25:56.216Z,2.17
2023-02-25T04:28:24.132Z,1.60
2023-02-25T04:30:52.317Z,1.70
2023-02-25T04:33:20.268Z,1.50
2023-02-25T04:35:48.203Z,1.50
2023-02-25T04:38:17.456Z,1.80
2023-02-25T04:40:45.372Z,1.67
2023-02-25T04:43:13.255Z,2.00
2023-02-25T04:45:41.138Z,1.70
2023-02-25T04:48:09.158Z,1.37
2023-02-25T04:50:37.121Z,1.60
2023-02-25T04:53:05.070Z,1.40
2023-02-25T04:55:37.119Z,1.60
2023-02-25T04:58:05.061Z,1.67
2023-02-25T05:00:33.317Z,1.70
2023-02-25T05:03:01.319Z,2.07
2023-02-25T05:05:29.550Z,1.50
2023-02-25T05:07:57.523Z,1.50
2023-02-25T05:10:25.402Z,1.73
2023-02-25T05:12:54.898Z,1.80
2023-02-25T05:15:23.220Z,1.40
2023-02-25T05:17:51.131Z,1.77
2023-02-25T05:20:19.725Z,1.70
2023-02-25T05:22:47.885Z,1.83
2023-02-25T05:25:15.941Z,1.90
2023-02-25T05:27:43.884Z,1.80
2023-02-25T05:30:14.684Z,1.70
2023-02-25T05:32:42.791Z,1.40
2023-02-25T05:35:12.061Z,2.33
2023-02-25T05:37:40.159Z,1.50
2023-02-25T05:40:09.742Z,1.33
2023-02-25T05:42:38.341Z,1.70
2023-02-25T05:45:07.038Z,1.70
2023-02-25T05:47:37.216Z,1.90
2023-02-25T05:50:05.867Z,1.27
2023-02-25T05:52:33.851Z,1.63
2023-02-25T05:55:02.295Z,1.43
2023-02-25T05:57:30.645Z,1.90
2023-02-25T05:59:58.560Z,1.50
2023-02-25T06:02:26.654Z,1.43
2023-02-25T06:04:56.204Z,1.47
2023-02-25T06:07:24.119Z,1.20
2023-02-25T06:09:52.016Z,2.20
2023-02-25T06:12:19.911Z,1.93
2023-02-25T06:14:47.853Z,1.43
2023-02-25T06:17:15.794Z,1.20
2023-02-25T06:19:43.876Z,1.30
2023-02-25T06:22:13.338Z,1.10
2023-02-25T06:24:41.616Z,1.50
2023-02-25T06:27:10.023Z,1.30
2023-02-25T06:29:41.538Z,1.83
2023-02-25T06:32:10.102Z,1.53
2023-02-25T06:34:38.173Z,1.47
2023-02-25T06:37:06.234Z,1.50
2023-02-25T06:39:35.560Z,1.37
2023-02-25T06:42:03.458Z,1.33
2023-02-25T06:44:33.049Z,1.40
2023-02-25T06:47:00.964Z,1.90
2023-02-25T06:49:30.477Z,1.47
2023-02-25T06:51:58.390Z,1.70
2023-02-25T06:54:27.893Z,1.50
2023-02-25T06:56:58.306Z,1.50
2023-02-25T06:59:27.456Z,1.43
2023-02-25T07:01:55.835Z,1.30
2023-02-25T07:04:23.747Z,1.40
2023-02-25T07:06:51.663Z,1.50
2023-02-25T07:09:19.549Z,1.40
2023-02-25T07:11:47.543Z,1.60
2023-02-25T07:14:16.955Z,1.43
2023-02-25T07:16:45.005Z,2.00
2023-02-25T07:19:15.041Z,1.70
2023-02-25T07:21:43.445Z,2.03
2023-02-25T07:24:11.747Z,1.33
2023-02-25T07:26:40.033Z,1.53
2023-02-25T07:29:07.935Z,1.43
2023-02-25T07:31:37.713Z,1.80
2023-02-25T07:34:05.742Z,2.00
2023-02-25T07:36:35.237Z,1.73
2023-02-25T07:39:04.205Z,1.60
2023-02-25T07:41:32.188Z,1.80
2023-02-25T07:44:00.474Z,1.37
2023-02-25T07:46:28.845Z,1.80
2023-02-25T07:48:58.322Z,1.90
2023-02-25T07:51:27.120Z,2.20
2023-02-25T07:53:57.407Z,1.90
2023-02-25T07:56:27.708Z,1.70
2023-02-25T07:58:55.688Z,1.90
2023-02-25T08:01:26.107Z,2.17
2023-02-25T08:03:55.820Z,2.23
2023-02-25T08:06:25.394Z,2.53
2023-02-25T08:08:55.198Z,1.73
2023-02-25T08:11:26.933Z,1.50
2023-02-25T08:13:55.361Z,1.80
2023-02-25T08:16:23.812Z,1.50
2023-02-25T08:18:52.999Z,1.90
2023-02-25T08:21:23.412Z,1.37
2023-02-25T08:23:54.093Z,1.80
2023-02-25T08:26:23.458Z,1.83
2023-02-25T08:28:52.633Z,1.53
2023-02-25T08:31:23.180Z,1.53
2023-02-25T08:33:52.708Z,1.63
2023-02-25T08:36:23.380Z,1.60
2023-02-25T08:38:53.293Z,1.70
2023-02-25T08:41:23.393Z,2.17
2023-02-25T08:43:54.409Z,1.43
2023-02-25T08:46:23.030Z,1.77
2023-02-25T08:48:52.134Z,1.50
2023-02-25T08:51:21.733Z,1.70
2023-02-25T08:53:49.812Z,1.50
2023-02-25T08:56:19.315Z,1.70
2023-02-25T08:58:47.660Z,1.70
2023-02-25T09:01:17.777Z,1.97
2023-02-25T09:03:53.530Z,1.87
2023-02-25T09:06:23.334Z,1.57
2023-02-25T09:08:52.278Z,1.73
2023-02-25T09:11:22.506Z,1.70
2023-02-25T09:13:50.660Z,1.83
2023-02-25T09:16:20.103Z,1.50
2023-02-25T09:18:50.227Z,1.67
2023-02-25T09:21:19.361Z,1.53
2023-02-25T09:23:47.662Z,1.87
2023-02-25T09:26:15.889Z,1.50
2023-02-25T09:28:45.728Z,1.47
2023-02-25T09:31:13.949Z,2.07
2023-02-25T09:33:43.462Z,1.40
2023-02-25T09:36:14.271Z,2.70
2023-02-25T09:38:43.697Z,1.30
2023-02-25T09:41:26.269Z,1.63
2023-02-25T09:44:03.359Z,1.60
2023-02-25T09:46:33.503Z,1.53
2023-02-25T09:49:06.421Z,2.33
2023-02-25T09:51:38.917Z,1.70
2023-02-25T09:54:19.613Z,1.63
2023-02-25T09:56:47.922Z,1.50
2023-02-25T09:59:21.442Z,1.70
2023-02-25T10:01:54.843Z,1.10
2023-02-25T10:04:30.045Z,1.80
2023-02-25T10:07:02.423Z,1.87
2023-02-25T10:09:38.681Z,1.73
2023-02-25T10:12:13.302Z,1.57
2023-02-25T10:15:06.166Z,1.37
2023-02-25T10:17:44.353Z,1.60
2023-02-25T10:20:31.203Z,1.47
2023-02-25T10:23:07.776Z,1.87
2023-02-25T10:25:41.166Z,1.43
2023-02-25T10:28:16.361Z,1.30
2023-02-25T10:30:51.462Z,1.43
2023-02-25T10:33:24.434Z,1.63
2023-02-25T10:35:57.463Z,1.60
2023-02-25T10:38:25.343Z,1.60
2023-02-25T10:40:56.546Z,1.40
2023-02-25T10:43:26.612Z,1.13
2023-02-25T10:46:02.353Z,1.60
2023-02-25T10:48:32.028Z,1.50
2023-02-25T10:51:06.907Z,1.83
2023-02-25T10:53:35.349Z,1.50
2023-02-25T10:56:03.679Z,1.57
2023-02-25T10:58:40.884Z,1.60
2023-02-25T11:01:17.437Z,1.47
2023-02-25T11:03:53.674Z,1.40
2023-02-25T11:06:26.172Z,1.63
2023-02-25T11:08:56.368Z,1.63
2023-02-25T11:11:26.772Z,1.50
2023-02-25T11:14:01.725Z,1.30
2023-02-25T11:16:35.127Z,1.27
2023-02-25T11:19:13.404Z,1.30
2023-02-25T11:21:42.374Z,1.33
2023-02-25T11:24:16.399Z,1.50
2023-02-25T11:26:46.589Z,1.83
2023-02-25T11:29:18.940Z,1.33
2023-02-25T11:31:51.457Z,1.20
2023-02-25T11:34:23.538Z,1.70
2023-02-25T11:36:52.544Z,1.37
2023-02-25T11:39:22.839Z,1.63
2023-02-25T11:41:52.689Z,1.20
2023-02-25T11:44:26.665Z,1.50
2023-02-25T11:47:02.602Z,1.20
2023-02-25T11:49:43.012Z,1.30
2023-02-25T11:52:16.963Z,1.80
2023-02-25T11:54:54.768Z,1.53
2023-02-25T11:57:34.014Z,1.70
2023-02-25T12:00:18.589Z,1.73
2023-02-25T12:03:04.505Z,1.57
2023-02-25T12:05:52.000Z,1.87
2023-02-25T12:08:33.238Z,1.80
2023-02-25T12:11:49.026Z,2.03
2023-02-25T12:14:45.648Z,1.97
2023-02-25T12:17:58.218Z,1.93
2023-02-25T12:21:03.080Z,1.80
2023-02-25T12:24:08.513Z,1.73
2023-02-25T12:26:55.390Z,2.47
2023-02-25T12:29:57.442Z,2.23
2023-02-25T12:32:46.345Z,1.67
2023-02-25T12:35:50.145Z,1.70
2023-02-25T12:39:00.145Z,1.53
2023-02-25T12:41:39.943Z,2.00
2023-02-25T12:44:35.951Z,2.10
2023-02-25T12:47:18.876Z,1.90
2023-02-25T12:50:09.134Z,1.43
2023-02-25T12:52:53.616Z,1.70
2023-02-25T12:55:40.933Z,1.50
2023-02-25T12:58:34.547Z,1.70
2023-02-25T13:01:32.040Z,1.50
2023-02-25T13:04:24.156Z,1.70
2023-02-25T13:07:18.623Z,1.50
2023-02-25T13:10:12.194Z,1.57
2023-02-25T13:12:58.797Z,1.60
2023-02-25T13:15:33.892Z,1.50
2023-02-25T13:18:12.433Z,1.87
2023-02-25T13:20:57.114Z,1.40
2023-02-25T13:23:46.240Z,1.57
2023-02-25T13:26:28.681Z,1.60
2023-02-25T13:29:12.297Z,1.50
2023-02-25T13:31:50.592Z,1.90
2023-02-25T13:34:30.622Z,1.90
2023-02-25T13:37:23.421Z,2.10
2023-02-25T13:40:06.888Z,1.90
2023-02-25T13:43:09.287Z,1.57
2023-02-25T13:45:55.554Z,1.40
2023-02-25T13:49:01.687Z,1.70
2023-02-25T13:52:09.601Z,1.73
2023-02-25T13:55:01.008Z,1.73
2023-02-25T13:57:45.506Z,2.30
2023-02-25T14:01:01.734Z,1.80
2023-02-25T14:04:08.926Z,1.60
2023-02-25T14:06:53.976Z,1.80
2023-02-25T14:09:42.524Z,1.53
2023-02-25T14:12:24.850Z,1.90
2023-02-25T14:15:19.520Z,1.90
2023-02-25T14:18:08.503Z,1.43
2023-02-25T14:20:45.052Z,1.40
2023-02-25T14:23:22.463Z,1.77
2023-02-25T14:26:22.695Z,1.60
2023-02-25T14:29:04.543Z,1.37
2023-02-25T14:31:44.907Z,1.57
2023-02-25T14:34:44.464Z,1.70
2023-02-25T14:37:26.797Z,1.60
2023-02-25T14:40:25.742Z,1.90
2023-02-25T14:43:22.476Z,2.00
2023-02-25T14:45:56.284Z,2.20
2023-02-25T14:48:31.123Z,2.20
2023-02-25T14:51:32.892Z,1.83
2023-02-25T14:54:16.553Z,1.83
2023-02-25T14:57:09.624Z,2.20
2023-02-25T15:00:12.152Z,2.50
2023-02-25T15:03:04.172Z,1.60
2023-02-25T15:05:42.405Z,2.20
2023-02-25T15:08:46.628Z,1.67
2023-02-25T15:11:39.943Z,1.43
2023-02-25T15:14:51.692Z,1.40
2023-02-25T15:17:57.202Z,1.23
2023-02-25T15:20:38.810Z,1.30
2023-02-25T15:23:09.748Z,1.20
2023-02-25T15:25:44.948Z,1.03
2023-02-25T15:28:42.612Z,1.10
2023-02-25T15:31:28.557Z,1.17
2023-02-25T15:34:33.554Z,2.23
2023-02-25T15:37:25.432Z,0.90
2023-02-25T15:39:56.338Z,1.20
2023-02-25T15:42:47.812Z,1.67
2023-02-25T15:45:40.415Z,2.13
2023-02-25T15:48:36.162Z,1.67
2023-02-25T15:51:10.307Z,1.47
2023-02-25T15:53:45.039Z,2.13
2023-02-25T15:56:47.332Z,1.90
2023-02-25T15:59:44.031Z,1.90
2023-02-25T16:02:35.057Z,1.50
2023-02-25T16:05:16.081Z,1.67
2023-02-25T16:07:46.638Z,2.20
2023-02-25T16:10:24.981Z,2.83
2023-02-25T16:12:55.522Z,2.50
2023-02-25T16:15:28.710Z,4.20
2023-02-25T16:17:58.597Z,4.90
2023-02-25T16:20:31.339Z,2.60
2023-02-25T16:23:01.018Z,2.40
2023-02-25T16:25:39.736Z,2.50
2023-02-25T16:28:19.495Z,2.03
2023-02-25T16:30:55.203Z,1.90
2023-02-25T16:33:27.817Z,1.87
2023-02-25T16:36:08.187Z,1.97
2023-02-25T16:38:42.483Z,1.80
2023-02-25T16:41:10.580Z,1.60
2023-02-25T16:43:40.319Z,2.27
2023-02-25T16:46:12.827Z,2.07
2023-02-25T16:48:50.115Z,3.50
2023-02-25T16:51:25.707Z,2.27
2023-02-25T16:53:58.131Z,2.57
2023-02-25T16:56:29.618Z,2.77
2023-02-25T16:59:04.935Z,2.30
2023-02-25T17:01:35.128Z,2.57
2023-02-25T17:04:12.920Z,2.27
2023-02-25T17:06:42.264Z,2.30
2023-02-25T17:09:23.589Z,2.10
2023-02-25T17:11:56.152Z,2.20
2023-02-25T17:14:25.358Z,2.30
2023-02-25T17:16:53.751Z,2.30
2023-02-25T17:19:23.058Z,2.10
2023-02-25T17:21:56.207Z,2.70
2023-02-25T17:24:27.868Z,2.80
2023-02-25T17:26:56.524Z,2.30
2023-02-25T17:29:34.800Z,3.10
2023-02-25T17:32:13.802Z,3.50
2023-02-25T17:34:43.177Z,4.20
2023-02-25T17:37:16.569Z,3.17
2023-02-25T17:39:45.304Z,3.90
2023-02-25T17:42:31.289Z,5.50
2023-02-25T17:45:00.798Z,3.97
2023-02-25T17:47:31.434Z,4.70
2023-02-25T17:50:03.244Z,3.50
2023-02-25T17:52:33.760Z,4.60
2023-02-25T17:55:05.267Z,3.10
2023-02-25T17:57:34.159Z,3.53
2023-02-25T18:00:14.050Z,4.77
2023-02-25T18:02:44.077Z,4.50
2023-02-25T18:05:25.412Z,3.90
2023-02-25T18:08:19.675Z,4.10
2023-02-25T18:10:54.912Z,3.70
2023-02-25T18:13:28.466Z,3.77
2023-02-25T18:16:25.843Z,6.50
2023-02-25T18:18:55.338Z,3.70
2023-02-25T18:21:23.611Z,4.33
2023-02-25T18:23:53.720Z,4.30
2023-02-25T18:26:25.115Z,3.93
2023-02-25T18:28:54.097Z,4.17
2023-02-25T18:31:22.756Z,4.73
2023-02-25T18:33:52.130Z,4.50
2023-02-25T18:36:24.445Z,5.83
2023-02-25T18:38:55.431Z,4.37
2023-02-25T18:41:23.987Z,4.00
2023-02-25T18:43:54.511Z,4.17
2023-02-25T18:46:22.902Z,3.73
2023-02-25T18:48:51.360Z,4.60
2023-02-25T18:51:19.243Z,4.20
2023-02-25T18:53:47.640Z,4.30
2023-02-25T18:56:18.979Z,4.87
2023-02-25T18:58:47.130Z,4.60
2023-02-25T19:01:21.665Z,4.90
2023-02-25T19:03:51.125Z,4.83
2023-02-25T19:06:19.193Z,4.63
2023-02-25T19:08:47.184Z,4.73
2023-02-25T19:11:21.479Z,4.40
2023-02-25T19:13:50.132Z,4.23
2023-02-25T19:16:19.192Z,4.40
2023-02-25T19:18:48.165Z,5.67
2023-02-25T19:21:18.793Z,4.30
2023-02-25T19:23:47.490Z,4.73
2023-02-25T19:26:16.944Z,5.47
2023-02-25T19:28:45.196Z,6.20
2023-02-25T19:31:13.386Z,6.27
2023-02-25T19:33:41.551Z,5.67
2023-02-25T19:36:11.137Z,6.30
2023-02-25T19:38:39.068Z,6.93
2023-02-25T19:41:07.582Z,6.07
2023-02-25T19:43:37.358Z,5.37
2023-02-25T19:46:09.063Z,7.00
2023-02-25T19:48:37.555Z,6.87
2023-02-25T19:51:10.080Z,6.20
2023-02-25T19:53:38.426Z,5.40
2023-02-25T19:56:07.951Z,6.00
2023-02-25T19:58:37.481Z,5.50
2023-02-25T20:01:07.802Z,5.80
2023-02-25T20:03:36.278Z,6.60
2023-02-25T20:06:07.988Z,6.27
2023-02-25T20:08:38.386Z,5.90
2023-02-25T20:11:09.734Z,8.10
2023-02-25T20:13:41.576Z,8.20
2023-02-25T20:16:10.084Z,8.70
2023-02-25T20:18:38.454Z,8.03
2023-02-25T20:21:06.578Z,5.77
2023-02-25T20:23:34.472Z,5.67
2023-02-25T20:26:07.250Z,5.50
2023-02-25T20:28:35.645Z,5.77
2023-02-25T20:31:06.540Z,4.90
2023-02-25T20:33:35.134Z,5.80
2023-02-25T20:36:14.816Z,4.50
2023-02-25T20:38:54.991Z,5.23
2023-02-25T20:41:23.092Z,4.93
2023-02-25T20:43:51.126Z,4.80
2023-02-25T20:46:25.953Z,5.40
2023-02-25T20:48:54.315Z,5.23
2023-02-25T20:51:22.755Z,5.50
2023-02-25T20:53:51.196Z,4.97
2023-02-25T20:56:23.113Z,4.57
2023-02-25T20:58:51.775Z,5.57
2023-02-25T21:01:21.324Z,4.77
2023-02-25T21:03:50.187Z,5.60
2023-02-25T21:06:19.642Z,5.50
2023-02-25T21:08:48.623Z,5.03
2023-02-25T21:11:16.684Z,5.60
2023-02-25T21:13:46.607Z,4.30
2023-02-25T21:16:16.173Z,5.77
2023-02-25T21:18:46.731Z,4.57
2023-02-25T21:21:16.643Z,5.77
2023-02-25T21:23:45.575Z,5.80
2023-02-25T21:26:14.089Z,5.60
2023-02-25T21:28:42.470Z,5.63
2023-02-25T21:31:13.178Z,4.63
2023-02-25T21:33:41.858Z,4.90
2023-02-25T21:36:12.042Z,4.20
2023-02-25T21:38:41.022Z,5.13
2023-02-25T21:41:12.098Z,4.60
2023-02-25T21:43:40.873Z,3.63
2023-02-25T21:46:11.860Z,4.30
2023-02-25T21:48:40.912Z,4.40
2023-02-25T21:51:14.975Z,3.57
2023-02-25T21:53:44.219Z,4.07
2023-02-25T21:56:14.566Z,3.90
2023-02-25T21:58:42.481Z,4.00
2023-02-25T22:01:16.105Z,3.67
2023-02-25T22:03:44.801Z,4.10
2023-02-25T22:06:13.273Z,3.70
2023-02-25T22:08:41.980Z,4.00
2023-02-25T22:11:15.071Z,4.00
2023-02-25T22:13:43.990Z,3.43
2023-02-25T22:16:12.808Z,3.17
2023-02-25T22:18:40.972Z,3.13
2023-02-25T22:21:12.433Z,3.30
2023-02-25T22:23:41.041Z,2.60
2023-02-25T22:26:11.120Z,2.87
2023-02-25T22:28:40.769Z,2.90
2023-02-25T22:31:11.270Z,3.00
2023-02-25T22:33:39.494Z,2.77
2023-02-25T22:36:08.414Z,2.73
2023-02-25T22:38:39.179Z,2.40
2023-02-25T22:41:11.812Z,2.37
2023-02-25T22:43:41.350Z,2.70
2023-02-25T22:46:11.457Z,2.80
2023-02-25T22:48:40.628Z,2.60
2023-02-25T22:51:10.238Z,2.23
2023-02-25T22:53:38.711Z,2.90
2023-02-25T22:56:09.265Z,2.60
2023-02-25T22:58:38.820Z,2.63
2023-02-25T23:01:08.747Z,2.40
2023-02-25T23:03:38.323Z,2.70
2023-02-25T23:06:07.819Z,2.60
2023-02-25T23:08:36.578Z,2.40
2023-02-25T23:11:12.435Z,2.77
2023-02-25T23:13:45.926Z,3.00
2023-02-25T23:16:16.525Z,3.20
2023-02-25T23:18:44.735Z,2.97
2023-02-25T23:21:18.949Z,2.50
2023-02-25T23:23:48.160Z,2.63
2023-02-25T23:26:18.501Z,2.10
2023-02-25T23:28:47.269Z,2.37
2023-02-25T23:31:24.585Z,2.40
2023-02-25T23:33:55.590Z,2.10
2023-02-25T23:36:23.981Z,2.60
2023-02-25T23:38:54.178Z,2.43
2023-02-25T23:41:22.487Z,1.90
2023-02-25T23:43:53.423Z,2.70
2023-02-25T23:46:24.973Z,2.97
2023-02-25T23:48:56.036Z,2.43
2023-02-25T23:51:24.347Z,2.40
2023-02-25T23:53:54.130Z,2.33
2023-02-25T23:56:22.456Z,2.60
2023-02-25T23:58:51.322Z,2.87
